Time;durP1;ratioP1;P1;durP2;ratioP2;P2;SDS_P1;SDS_P2;PMS_P1;PMS_P2;Temp;Humidity;BMP_temperature;BMP_pressure;BME280_temperature;BME280_humidity;BME280_pressure;Samples;Min_cycle;Max_cycle;Signal;HPM_P1;HPM_P2
2024/01/11 00:01:14;;;;;;;39.95;24.92;;;;;;;-5.12;100.00;103037.69;5062675;28;20029;-78
2024/01/11 00:03:40;;;;;;;39.92;25.98;;;;;;;-5.11;100.00;103040.44;5063344;28;20036;-77
2024/01/11 00:06:05;;;;;;;38.65;24.88;;;;;;;-5.11;100.00;103034.34;5061003;28;20036;-77
2024/01/11 00:08:30;;;;;;;38.58;24.55;;;;;;;-5.08;100.00;103037.25;5064457;28;20048;-78
2024/01/11 00:10:56;;;;;;;40.13;26.10;;;;;;;-5.08;100.00;103026.94;5061034;28;20490;-77
2024/01/11 00:13:21;;;;;;;39.63;25.33;;;;;;;-5.10;100.00;103036.19;5063300;28;20114;-78
2024/01/11 00:15:46;;;;;;;37.60;24.75;;;;;;;-5.07;100.00;103036.47;5062471;28;20040;-77
2024/01/11 00:18:12;;;;;;;38.15;24.75;;;;;;;-5.19;100.00;103032.66;5062031;28;20033;-76
2024/01/11 00:20:37;;;;;;;40.45;25.75;;;;;;;-5.26;100.00;103044.94;5063936;28;20035;-77
2024/01/11 00:23:03;;;;;;;39.70;26.13;;;;;;;-5.28;100.00;103041.25;5047717;28;20500;-77
2024/01/11 00:25:28;;;;;;;40.20;26.65;;;;;;;-5.31;100.00;103040.94;5064290;28;20025;-77
2024/01/11 00:27:54;;;;;;;39.30;26.48;;;;;;;-5.36;100.00;103051.53;5061366;28;20413;-80
2024/01/11 00:30:19;;;;;;;42.05;27.10;;;;;;;-5.41;100.00;103035.59;5062634;28;20456;-81
2024/01/11 00:32:44;;;;;;;43.40;28.58;;;;;;;-5.29;100.00;103039.44;5062381;28;20432;-82
2024/01/11 00:35:10;;;;;;;44.78;29.33;;;;;;;-5.27;100.00;103034.47;5061171;28;20049;-76
2024/01/11 00:37:35;;;;;;;44.90;28.90;;;;;;;-5.14;100.00;103034.03;5063815;28;20112;-77
2024/01/11 00:40:01;;;;;;;41.85;27.90;;;;;;;-5.10;100.00;103034.53;5060372;28;20078;-76
2024/01/11 00:42:26;;;;;;;40.97;26.73;;;;;;;-5.08;100.00;103030.44;5063753;28;20105;-77
2024/01/11 00:44:51;;;;;;;42.22;26.65;;;;;;;-5.07;100.00;103033.91;5043774;28;20032;-77
2024/01/11 00:47:17;;;;;;;42.22;27.50;;;;;;;-5.06;100.00;103040.91;5066365;28;20107;-77
2024/01/11 00:49:42;;;;;;;40.92;26.70;;;;;;;-5.05;100.00;103035.00;5066580;28;20384;-77
2024/01/11 00:52:09;;;;;;;39.92;26.42;;;;;;;-5.03;100.00;103036.06;5064651;28;20047;-77
2024/01/11 00:54:35;;;;;;;39.53;26.13;;;;;;;-5.06;100.00;103037.41;5067819;28;20091;-77
2024/01/11 00:57:00;;;;;;;38.78;25.38;;;;;;;-5.05;100.00;103042.72;5064254;28;20025;-76
2024/01/11 00:59:26;;;;;;;40.13;25.23;;;;;;;-5.09;100.00;103038.00;5067088;28;20020;-76
2024/01/11 01:01:51;;;;;;;38.75;25.15;;;;;;;-5.12;100.00;103041.19;5065393;28;20040;-80
2024/01/11 01:04:16;;;;;;;40.03;26.00;;;;;;;-5.19;100.00;103042.97;5065726;28;20040;-80
2024/01/11 01:06:42;;;;;;;38.95;25.52;;;;;;;-5.20;100.00;103044.63;5066344;28;20361;-80
2024/01/11 01:09:08;;;;;;;38.13;25.70;;;;;;;-5.06;100.00;103046.06;5064672;28;20426;-81
2024/01/11 01:11:33;;;;;;;39.70;26.30;;;;;;;-5.06;100.00;103040.91;5067296;28;20033;-80
2024/01/11 01:13:59;;;;;;;37.83;24.70;;;;;;;-4.98;100.00;103044.25;5054359;28;20029;-80
2024/01/11 01:16:24;;;;;;;39.42;25.40;;;;;;;-5.00;100.00;103046.69;5068093;28;20036;-81
2024/01/11 01:18:49;;;;;;;39.13;25.27;;;;;;;-5.04;100.00;103051.38;5065834;28;20116;-81
2024/01/11 01:21:15;;;;;;;38.20;24.98;;;;;;;-4.99;100.00;103051.09;5066104;28;20032;-79
2024/01/11 01:23:40;;;;;;;38.78;25.27;;;;;;;-5.03;100.00;103056.69;5064623;28;20029;-80
2024/01/11 01:26:06;;;;;;;39.33;25.23;;;;;;;-5.08;100.00;103057.91;5066892;28;20514;-79
2024/01/11 01:28:31;;;;;;;39.92;25.90;;;;;;;-5.20;100.00;103057.53;5033476;28;20059;-80
2024/01/11 01:30:57;;;;;;;38.72;25.73;;;;;;;-5.18;100.00;103055.13;5059374;28;20051;-80
2024/01/11 01:33:22;;;;;;;39.05;25.13;;;;;;;-5.20;100.00;103061.78;5065843;28;20029;-79
2024/01/11 01:35:48;;;;;;;38.95;26.00;;;;;;;-5.21;100.00;103063.47;5064931;28;20124;-77
2024/01/11 01:38:13;;;;;;;40.03;25.88;;;;;;;-5.18;100.00;103068.03;5064669;28;20025;-79
2024/01/11 01:40:38;;;;;;;38.58;25.63;;;;;;;-5.19;100.00;103071.34;5057143;28;20111;-80
2024/01/11 01:43:08;;;;;;;38.90;25.65;;;;;;;-5.21;100.00;103075.41;5067030;28;20394;-79
2024/01/11 01:45:34;;;;;;;40.15;25.60;;;;;;;-5.20;100.00;103074.69;5063287;28;20060;-77
2024/01/11 01:47:59;;;;;;;39.05;25.15;;;;;;;-5.22;100.00;103086.50;5057026;28;20137;-79
2024/01/11 01:50:26;;;;;;;38.65;25.45;;;;;;;-5.32;100.00;103088.09;5064060;28;20044;-80
2024/01/11 01:52:51;;;;;;;39.42;25.88;;;;;;;-5.34;100.00;103081.91;5065257;28;20036;-80
2024/01/11 01:55:19;;;;;;;40.05;26.40;;;;;;;-5.31;100.00;103089.03;5064838;28;20111;-80
2024/01/11 01:57:46;;;;;;;40.03;25.50;;;;;;;-5.39;100.00;103095.97;5063555;28;20476;-82
2024/01/11 02:00:13;;;;;;;39.20;25.45;;;;;;;-5.45;100.00;103093.66;5047582;28;20126;-80
2024/01/11 02:02:42;;;;;;;38.42;25.25;;;;;;;-5.41;100.00;103101.72;5063356;28;20036;-80
2024/01/11 02:05:08;;;;;;;40.38;26.17;;;;;;;-5.44;100.00;103097.16;5066104;28;20075;-81
2024/01/11 02:07:33;;;;;;;40.20;26.40;;;;;;;-5.43;100.00;103096.41;5062878;28;20082;-82
2024/01/11 02:09:59;;;;;;;39.08;25.25;;;;;;;-5.45;100.00;103093.66;5066061;28;20025;-80
2024/01/11 02:12:25;;;;;;;39.40;26.80;;;;;;;-5.39;100.00;103088.22;5063840;28;20481;-78
2024/01/11 02:14:53;;;;;;;41.08;26.42;;;;;;;-5.45;100.00;103078.19;5064860;28;20495;-77
2024/01/11 02:17:19;;;;;;;38.67;25.70;;;;;;;-5.49;100.00;103069.97;5064359;28;20020;-80
2024/01/11 02:19:44;;;;;;;39.47;25.20;;;;;;;-5.43;100.00;103076.69;5064304;28;20499;-76
2024/01/11 02:22:20;;;;;;;38.92;25.27;;;;;;;-5.47;100.00;103079.69;5056352;28;20427;-75
2024/01/11 02:24:46;;;;;;;40.55;26.45;;;;;;;-5.42;100.00;103072.44;5064532;28;20071;-76
2024/01/11 02:27:11;;;;;;;39.42;25.17;;;;;;;-5.43;100.00;103071.53;5051485;28;20451;-75
2024/01/11 02:29:36;;;;;;;39.83;26.00;;;;;;;-5.37;100.00;103078.06;5065678;28;20031;-75
2024/01/11 02:32:02;;;;;;;38.83;26.02;;;;;;;-5.46;100.00;103072.88;5062544;28;20044;-76
2024/01/11 02:34:29;;;;;;;39.85;25.23;;;;;;;-5.51;100.00;103081.78;5065651;28;20025;-75
2024/01/11 02:36:55;;;;;;;39.35;25.55;;;;;;;-5.53;100.00;103085.88;5062780;28;20049;-79
2024/01/11 02:39:22;;;;;;;40.92;25.95;;;;;;;-5.48;100.00;103097.59;5064210;28;20090;-75
2024/01/11 02:41:50;;;;;;;39.72;25.38;;;;;;;-5.51;100.00;103084.38;5064274;28;20367;-79
2024/01/11 02:44:16;;;;;;;40.33;26.33;;;;;;;-5.49;100.00;103086.38;5063581;28;20430;-75
2024/01/11 02:46:41;;;;;;;39.92;26.13;;;;;;;-5.47;100.00;103083.94;5064657;28;20021;-75
2024/01/11 02:49:07;;;;;;;41.30;26.80;;;;;;;-5.53;100.00;103084.22;5062411;28;20127;-75
2024/01/11 02:51:32;;;;;;;39.22;26.05;;;;;;;-5.49;100.00;103085.44;5065413;28;20035;-75
2024/01/11 02:53:58;;;;;;;40.53;26.70;;;;;;;-5.51;100.00;103086.94;5062271;28;20506;-75
2024/01/11 02:56:23;;;;;;;39.78;25.55;;;;;;;-5.50;100.00;103084.53;5064510;28;20060;-79
2024/01/11 02:58:49;;;;;;;39.42;25.75;;;;;;;-5.54;100.00;103095.28;5063379;28;20037;-80
2024/01/11 03:01:14;;;;;;;40.85;26.20;;;;;;;-5.49;100.00;103090.59;5063096;28;20040;-75
2024/01/11 03:03:39;;;;;;;40.15;25.77;;;;;;;-5.57;100.00;103087.22;5046865;28;20036;-79
2024/01/11 03:06:05;;;;;;;39.40;26.35;;;;;;;-5.58;100.00;103087.06;5061683;28;20148;-75
2024/01/11 03:08:30;;;;;;;41.00;27.25;;;;;;;-5.58;100.00;103081.91;5064836;28;20483;-75
2024/01/11 03:10:55;;;;;;;42.00;27.33;;;;;;;-5.53;100.00;103088.44;5062465;28;20044;-76
2024/01/11 03:13:21;;;;;;;41.28;27.48;;;;;;;-5.61;100.00;103087.63;5063588;28;20166;-74
2024/01/11 03:15:46;;;;;;;41.22;27.15;;;;;;;-5.55;100.00;103085.69;5063630;28;20089;-74
2024/01/11 03:18:12;;;;;;;42.28;27.35;;;;;;;-5.63;100.00;103082.31;5062349;28;20021;-74
2024/01/11 03:20:37;;;;;;;40.92;26.08;;;;;;;-5.60;100.00;103085.22;5064691;28;20029;-78
2024/01/11 03:23:02;;;;;;;41.28;27.00;;;;;;;-5.65;100.00;103089.00;5061730;28;20461;-78
2024/01/11 03:25:29;;;;;;;41.97;27.10;;;;;;;-5.66;100.00;103094.00;5064383;28;20036;-79
2024/01/11 03:27:55;;;;;;;42.20;27.52;;;;;;;-5.71;100.00;103085.75;5062083;28;20035;-77
2024/01/11 03:30:20;;;;;;;40.75;26.55;;;;;;;-5.72;100.00;103076.22;5063415;28;20037;-78
2024/01/11 03:32:45;;;;;;;40.95;26.90;;;;;;;-5.64;100.00;103077.91;5063206;28;20036;-79
2024/01/11 03:35:11;;;;;;;40.95;26.30;;;;;;;-5.76;100.00;103081.78;5061922;28;20055;-79
2024/01/11 03:37:36;;;;;;;39.97;26.75;;;;;;;-5.87;100.00;103084.88;5064337;28;20095;-79
2024/01/11 03:40:05;;;;;;;40.85;27.73;;;;;;;-5.87;100.00;103092.59;5061050;28;20040;-79
2024/01/11 03:42:30;;;;;;;40.70;27.38;;;;;;;-5.84;100.00;103088.72;5054933;28;20082;-79
2024/01/11 03:44:56;;;;;;;39.60;26.48;;;;;;;-5.90;100.00;103082.88;5061890;28;20041;-79
2024/01/11 03:47:21;;;;;;;41.20;27.00;;;;;;;-5.90;100.00;103080.31;5063170;28;20036;-74
2024/01/11 03:49:47;;;;;;;40.35;27.08;;;;;;;-5.74;100.00;103071.63;5045011;28;20031;-78
2024/01/11 03:52:12;;;;;;;41.28;26.65;;;;;;;-5.79;100.00;103076.31;5061863;28;20033;-77
2024/01/11 03:54:37;;;;;;;40.20;26.73;;;;;;;-5.78;100.00;103083.31;5064188;28;20030;-76
2024/01/11 03:57:03;;;;;;;42.28;27.50;;;;;;;-5.78;100.00;103079.06;5061170;28;20060;-77
2024/01/11 03:59:28;;;;;;;40.72;27.05;;;;;;;-5.79;100.00;103084.03;5064196;28;20391;-78
2024/01/11 04:01:53;;;;;;;41.47;26.50;;;;;;;-5.81;100.00;103091.63;5061994;28;20475;-77
2024/01/11 04:04:19;;;;;;;41.45;27.90;;;;;;;-5.80;100.00;103093.41;5063026;28;20436;-78
2024/01/11 04:06:45;;;;;;;40.83;26.88;;;;;;;-5.84;100.00;103083.56;5063208;28;20037;-78
2024/01/11 04:09:10;;;;;;;42.28;27.15;;;;;;;-5.79;100.00;103081.47;5061408;28;20029;-78
2024/01/11 04:11:36;;;;;;;42.90;27.23;;;;;;;-5.81;100.00;103075.22;5064378;28;20032;-78
2024/01/11 04:14:02;;;;;;;41.33;27.27;;;;;;;-5.84;100.00;103081.00;5060788;28;20067;-78
2024/01/11 04:16:27;;;;;;;40.65;26.33;;;;;;;-5.85;100.00;103088.56;5063922;28;20029;-79
2024/01/11 04:18:53;;;;;;;39.60;26.38;;;;;;;-5.88;100.00;103106.22;5044371;28;20108;-78
2024/01/11 04:21:28;;;;;;;41.17;26.88;;;;;;;-5.92;100.00;103115.31;5067737;28;20103;-79
2024/01/11 04:23:54;;;;;;;39.70;25.60;;;;;;;-6.02;100.00;103126.31;5068296;28;20062;-78
2024/01/11 04:26:20;;;;;;;41.53;27.25;;;;;;;-5.96;100.00;103123.47;5069356;28;20029;-78
2024/01/11 04:28:48;;;;;;;40.47;26.40;;;;;;;-5.97;100.00;103116.50;5069467;28;20021;-78
2024/01/11 04:31:14;;;;;;;41.33;26.55;;;;;;;-5.91;100.00;103121.38;5068325;28;20029;-78
2024/01/11 04:33:44;;;;;;;39.78;26.42;;;;;;;-5.88;100.00;103119.13;5070415;28;20454;-78
2024/01/11 04:36:10;;;;;;;41.17;26.42;;;;;;;-5.95;100.00;103121.03;5054899;28;20024;-78
2024/01/11 04:38:37;;;;;;;40.78;26.83;;;;;;;-6.00;100.00;103132.56;5070511;28;20033;-78
2024/01/11 04:41:02;;;;;;;40.28;26.58;;;;;;;-6.05;100.00;103135.38;5067401;28;20399;-74
2024/01/11 04:43:28;;;;;;;41.22;26.98;;;;;;;-6.04;100.00;103145.88;5070050;28;20120;-77
2024/01/11 04:45:53;;;;;;;40.83;26.63;;;;;;;-6.11;100.00;103145.94;5050400;28;20116;-77
2024/01/11 04:48:18;;;;;;;38.70;25.83;;;;;;;-6.04;100.00;103134.63;5069259;28;20025;-77
2024/01/11 04:50:45;;;;;;;41.20;26.35;;;;;;;-6.05;100.00;103126.00;5069427;28;20032;-76
2024/01/11 04:53:11;;;;;;;41.47;26.85;;;;;;;-6.09;100.00;103126.41;5067306;28;20041;-76
2024/01/11 04:55:36;;;;;;;38.47;25.00;;;;;;;-5.95;100.00;103131.34;5070629;28;20036;-75
2024/01/11 04:58:02;;;;;;;39.85;26.00;;;;;;;-6.02;100.00;103130.56;5067011;28;20024;-74
2024/01/11 05:00:27;;;;;;;39.95;26.17;;;;;;;-5.96;100.00;103131.19;5069804;28;20037;-74
2024/01/11 05:02:53;;;;;;;40.00;25.80;;;;;;;-6.06;100.00;103129.31;5068352;28;20105;-74
2024/01/11 05:05:18;;;;;;;40.45;25.85;;;;;;;-6.07;100.00;103130.06;5068461;28;20029;-74
2024/01/11 05:07:43;;;;;;;40.47;26.38;;;;;;;-6.00;100.00;103126.47;5069398;28;20056;-74
2024/01/11 05:10:09;;;;;;;39.40;25.42;;;;;;;-6.02;100.00;103134.03;5050168;28;20067;-74
2024/01/11 05:12:35;;;;;;;39.58;25.30;;;;;;;-6.05;100.00;103132.81;5062309;28;20036;-77
2024/01/11 05:15:00;;;;;;;40.55;25.98;;;;;;;-5.98;100.00;103138.78;5067040;28;20380;-74
2024/01/11 05:17:26;;;;;;;38.75;25.40;;;;;;;-6.04;100.00;103153.59;5069798;28;20039;-74
2024/01/11 05:19:51;;;;;;;39.20;25.83;;;;;;;-6.13;100.00;103150.00;5068128;28;20115;-76
2024/01/11 05:22:17;;;;;;;38.67;24.77;;;;;;;-6.18;100.00;103146.03;5068320;28;20043;-78
2024/01/11 05:24:43;;;;;;;39.13;25.25;;;;;;;-6.15;100.00;103146.34;5069372;28;20422;-74
2024/01/11 05:27:08;;;;;;;39.78;25.75;;;;;;;-6.12;100.00;103144.09;5066837;28;20361;-74
2024/01/11 05:29:33;;;;;;;39.85;25.33;;;;;;;-6.13;100.00;103153.50;5070445;28;20380;-74
2024/01/11 05:31:59;;;;;;;40.28;26.17;;;;;;;-6.21;100.00;103166.28;5065299;28;20033;-74
2024/01/11 05:34:24;;;;;;;38.20;24.90;;;;;;;-6.17;100.00;103161.63;5055295;28;20075;-74
2024/01/11 05:36:49;;;;;;;39.97;25.40;;;;;;;-6.13;100.00;103165.44;5065084;28;20053;-75
2024/01/11 05:39:15;;;;;;;39.60;25.23;;;;;;;-6.14;100.00;103179.09;5064741;28;20044;-76
2024/01/11 05:41:44;;;;;;;38.55;24.85;;;;;;;-6.13;100.00;103173.19;5066643;28;20033;-77
2024/01/11 05:44:09;;;;;;;38.40;25.33;;;;;;;-6.21;100.00;103189.47;5063865;28;20548;-77
2024/01/11 05:46:35;;;;;;;38.53;24.65;;;;;;;-6.28;100.00;103187.88;5057167;28;20115;-77
2024/01/11 05:49:00;;;;;;;39.42;25.60;;;;;;;-6.21;100.00;103192.03;5066636;28;20059;-77
2024/01/11 05:51:26;;;;;;;38.70;24.80;;;;;;;-6.16;100.00;103180.56;5064463;28;20033;-77
2024/01/11 05:53:52;;;;;;;38.45;24.55;;;;;;;-6.14;100.00;103166.22;5065076;28;20055;-77
2024/01/11 05:56:19;;;;;;;37.97;24.25;;;;;;;-6.17;100.00;103169.38;5065311;28;20033;-77
2024/01/11 05:58:44;;;;;;;37.67;24.23;;;;;;;-6.23;100.00;103157.47;5064134;28;20112;-77
2024/01/11 06:01:09;;;;;;;37.78;24.25;;;;;;;-6.21;100.00;103179.16;5066080;28;20505;-77
2024/01/11 06:03:35;;;;;;;38.53;25.13;;;;;;;-6.21;100.00;103171.44;5045221;28;20476;-77
2024/01/11 06:06:01;;;;;;;37.97;24.23;;;;;;;-6.23;100.00;103173.84;5066207;28;20058;-77
2024/01/11 06:08:28;;;;;;;41.03;27.67;;;;;;;-6.23;100.00;103176.44;5063568;28;20028;-77
2024/01/11 06:10:53;;;;;;;39.17;24.88;;;;;;;-6.31;100.00;103182.38;5065159;28;20041;-76
2024/01/11 06:13:18;;;;;;;37.83;25.52;;;;;;;-6.22;100.00;103187.63;5064630;28;20088;-76
2024/01/11 06:15:44;;;;;;;37.90;24.38;;;;;;;-6.24;100.00;103200.34;5063604;28;20067;-76
2024/01/11 06:18:09;;;;;;;38.05;25.40;;;;;;;-6.22;100.00;103213.38;5066023;28;20025;-76
2024/01/11 06:20:34;;;;;;;37.65;24.30;;;;;;;-6.28;100.00;103198.16;5062602;28;20032;-76
2024/01/11 06:23:00;;;;;;;38.25;26.00;;;;;;;-6.32;100.00;103189.22;5031094;28;20028;-74
2024/01/11 06:25:25;;;;;;;39.55;25.98;;;;;;;-6.36;100.00;103184.47;5063740;28;20052;-77
2024/01/11 06:27:50;;;;;;;37.72;24.83;;;;;;;-6.31;100.00;103184.97;5064273;28;20071;-77
2024/01/11 06:30:16;;;;;;;37.92;24.85;;;;;;;-6.33;100.00;103189.94;5056317;28;20505;-77
2024/01/11 06:32:41;;;;;;;36.90;25.25;;;;;;;-6.27;100.00;103196.53;5065437;28;20494;-77
2024/01/11 06:35:07;;;;;;;37.05;24.58;;;;;;;-6.24;100.00;103210.66;5062288;28;20032;-77
2024/01/11 06:37:32;;;;;;;37.55;24.58;;;;;;;-6.46;100.00;103197.06;5065627;28;20084;-77
2024/01/11 06:39:58;;;;;;;38.10;24.58;;;;;;;-6.45;100.00;103186.03;5062865;28;20101;-77
2024/01/11 06:42:23;;;;;;;38.63;24.10;;;;;;;-6.46;100.00;103189.34;5064159;28;20024;-76
2024/01/11 06:44:48;;;;;;;39.35;24.40;;;;;;;-6.43;100.00;103187.09;5063884;28;20036;-76
2024/01/11 06:47:14;;;;;;;38.42;24.48;;;;;;;-6.36;100.00;103204.16;5062830;28;20029;-76
2024/01/11 06:49:40;;;;;;;39.22;25.15;;;;;;;-6.40;100.00;103202.00;5065266;28;20032;-75
2024/01/11 06:52:06;;;;;;;37.58;24.27;;;;;;;-6.36;100.00;103199.91;5062041;28;20029;-76
2024/01/11 06:54:32;;;;;;;38.80;24.85;;;;;;;-6.43;100.00;103205.13;5065199;28;20029;-76
2024/01/11 06:56:57;;;;;;;38.95;25.50;;;;;;;-6.41;100.00;103211.34;5062542;28;20043;-77
2024/01/11 06:59:23;;;;;;;37.80;24.15;;;;;;;-6.53;100.00;103218.63;5064043;28;20071;-76
2024/01/11 07:01:49;;;;;;;38.92;23.92;;;;;;;-6.58;100.00;103222.38;5063954;28;20151;-76
2024/01/11 07:04:14;;;;;;;38.05;23.80;;;;;;;-6.72;100.00;103218.25;5050452;28;20040;-75
2024/01/11 07:06:39;;;;;;;38.30;24.70;;;;;;;-6.64;100.00;103220.75;5065030;28;20535;-74
2024/01/11 07:09:05;;;;;;;38.95;26.00;;;;;;;-6.73;100.00;103208.69;5061661;28;20111;-74
2024/01/11 07:11:32;;;;;;;39.67;25.73;;;;;;;-6.82;100.00;103220.53;5065730;28;20091;-74
2024/01/11 07:13:57;;;;;;;37.53;25.13;;;;;;;-6.82;100.00;103228.25;5064271;28;20419;-74
2024/01/11 07:16:23;;;;;;;37.67;25.48;;;;;;;-6.79;100.00;103226.00;5062897;28;20037;-76
2024/01/11 07:18:48;;;;;;;38.28;25.08;;;;;;;-6.69;100.00;103240.84;5062880;28;20186;-76
2024/01/11 07:21:29;;;;;;;38.03;24.73;;;;;;;-6.70;100.00;103236.41;5064295;28;20044;-75
2024/01/11 07:23:54;;;;;;;39.13;25.98;;;;;;;-6.74;100.00;103230.03;5063627;28;20362;-76
2024/01/11 07:26:20;;;;;;;38.10;25.38;;;;;;;-6.75;100.00;103233.34;5055274;28;20028;-75
2024/01/11 07:28:45;;;;;;;39.10;24.75;;;;;;;-6.77;100.00;103231.31;5063871;28;20546;-74
2024/01/11 07:31:10;;;;;;;36.72;24.75;;;;;;;-6.63;100.00;103238.03;5061557;28;20461;-75
2024/01/11 07:33:36;;;;;;;37.65;25.02;;;;;;;-6.62;100.00;103242.44;5064753;28;20127;-74
2024/01/11 07:36:01;;;;;;;39.25;25.85;;;;;;;-6.71;100.00;103248.38;5061529;28;20025;-75
2024/01/11 07:38:26;;;;;;;37.88;25.80;;;;;;;-6.65;100.00;103248.16;5063332;28;20063;-74
2024/01/11 07:40:52;;;;;;;37.83;26.23;;;;;;;-6.60;100.00;103243.53;5062843;28;20032;-75
2024/01/11 07:43:17;;;;;;;39.78;25.88;;;;;;;-6.62;100.00;103238.22;5062432;28;20103;-74
2024/01/11 07:45:43;;;;;;;39.15;25.20;;;;;;;-6.56;100.00;103232.84;5063803;28;20518;-74
2024/01/11 07:48:08;;;;;;;39.92;25.70;;;;;;;-6.46;100.00;103227.03;5061191;28;20035;-73
2024/01/11 07:50:33;;;;;;;41.00;25.90;;;;;;;-6.50;100.00;103224.13;5060526;28;20036;-74
2024/01/11 07:52:59;;;;;;;38.55;25.80;;;;;;;-6.49;100.00;103231.09;5061731;28;20043;-74
2024/01/11 07:55:25;;;;;;;40.55;26.58;;;;;;;-6.34;100.00;103247.31;5062654;28;20036;-74
2024/01/11 07:57:51;;;;;;;40.25;27.20;;;;;;;-6.50;100.00;103247.28;5062886;28;20047;-74
2024/01/11 08:00:17;;;;;;;41.05;27.15;;;;;;;-6.43;100.00;103243.75;5043968;28;20429;-73
2024/01/11 08:02:42;;;;;;;39.05;25.75;;;;;;;-6.40;100.00;103248.31;5064002;28;20033;-74
2024/01/11 08:05:08;;;;;;;40.08;25.25;;;;;;;-6.35;100.00;103240.38;5060794;28;20495;-73
2024/01/11 08:07:34;;;;;;;54.22;46.28;;;;;;;-6.07;100.00;103242.47;5064235;28;20040;-73
2024/01/11 08:09:59;;;;;;;42.42;33.47;;;;;;;-6.11;100.00;103233.50;5061539;28;20574;-73
2024/01/11 08:12:25;;;;;;;36.90;24.55;;;;;;;-6.07;100.00;103233.09;5062858;28;20115;-73
2024/01/11 08:14:50;;;;;;;36.10;23.48;;;;;;;-5.98;100.00;103222.91;5062417;28;20052;-73
2024/01/11 08:17:16;;;;;;;36.85;25.40;;;;;;;-5.89;100.00;103234.16;5061748;28;20053;-74
2024/01/11 08:19:44;;;;;;;35.90;23.17;;;;;;;-5.87;100.00;103226.59;5063713;28;20036;-73
2024/01/11 08:22:10;;;;;;;35.53;22.42;;;;;;;-5.71;100.00;103230.06;5060693;28;20066;-73
2024/01/11 08:24:36;;;;;;;36.05;22.35;;;;;;;-5.59;100.00;103227.94;5064210;28;20161;-73
2024/01/11 08:27:01;;;;;;;35.58;22.38;;;;;;;-5.45;100.00;103222.56;5060921;28;20502;-73
2024/01/11 08:29:27;;;;;;;35.40;22.52;;;;;;;-5.14;100.00;103224.91;5062855;28;20484;-73
2024/01/11 08:31:54;;;;;;;34.67;22.05;;;;;;;-4.69;100.00;103227.91;5062146;28;20029;-74
2024/01/11 08:34:20;;;;;;;35.58;21.92;;;;;;;-4.50;100.00;103224.66;5062044;28;20419;-74
2024/01/11 08:36:45;;;;;;;35.28;22.55;;;;;;;-4.33;100.00;103229.00;5062729;28;20081;-73
2024/01/11 08:39:12;;;;;;;35.72;22.83;;;;;;;-4.08;100.00;103229.81;5060820;28;20041;-74
2024/01/11 08:41:38;;;;;;;35.17;22.20;;;;;;;-3.86;100.00;103236.41;5063970;28;20028;-74
2024/01/11 08:44:07;;;;;;;33.30;22.17;;;;;;;-3.80;100.00;103233.53;5060437;28;20399;-74
2024/01/11 08:46:33;;;;;;;33.83;20.95;;;;;;;-3.64;100.00;103212.72;5063745;28;20025;-74
2024/01/11 08:48:59;;;;;;;32.97;20.77;;;;;;;-3.31;100.00;103218.50;5061094;28;20504;-75
2024/01/11 08:51:25;;;;;;;34.20;21.20;;;;;;;-3.18;100.00;103227.59;5062454;28;20147;-75
2024/01/11 08:53:52;;;;;;;33.22;20.55;;;;;;;-2.95;100.00;103220.28;5062297;28;20028;-75
2024/01/11 08:56:18;;;;;;;34.42;21.60;;;;;;;-2.71;100.00;103230.41;5061403;28;20033;-75
2024/01/11 08:58:43;;;;;;;35.28;21.80;;;;;;;-2.55;100.00;103240.56;5063188;28;20025;-75
2024/01/11 09:01:08;;;;;;;34.63;22.58;;;;;;;-2.29;100.00;103247.28;5060367;28;20104;-75
2024/01/11 09:03:35;;;;;;;33.88;21.67;;;;;;;-2.22;100.00;103254.00;5062178;28;20077;-75
2024/01/11 09:06:01;;;;;;;32.80;20.75;;;;;;;-2.04;100.00;103258.31;5061252;28;20357;-76
2024/01/11 09:08:26;;;;;;;32.58;20.48;;;;;;;-1.80;100.00;103258.78;5065316;28;20112;-74
2024/01/11 09:10:52;;;;;;;34.22;20.63;;;;;;;-1.80;100.00;103264.88;5066988;28;20031;-74
2024/01/11 09:13:18;;;;;;;32.53;20.60;;;;;;;-1.52;100.00;103262.25;5064720;28;20045;-77
2024/01/11 09:15:43;;;;;;;32.15;20.35;;;;;;;-1.55;100.00;103261.97;5066087;28;20436;-80
2024/01/11 09:18:09;;;;;;;32.65;20.60;;;;;;;-1.23;100.00;103264.00;5057733;28;20048;-81
2024/01/11 09:20:35;;;;;;;33.85;21.17;;;;;;;-1.14;100.00;103264.81;5048260;28;20029;-81
2024/01/11 09:23:03;;;;;;;32.20;20.88;;;;;;;-1.09;100.00;103267.88;5064258;28;20499;-79
2024/01/11 09:25:29;;;;;;;33.13;21.40;;;;;;;-0.97;100.00;103270.66;5066567;28;20032;-79
2024/01/11 09:27:55;;;;;;;32.80;20.17;;;;;;;-0.81;100.00;103266.03;5063786;28;20484;-79
2024/01/11 09:30:20;;;;;;;33.75;20.75;;;;;;;-0.68;100.00;103280.09;5063214;28;20036;-79
2024/01/11 09:32:45;;;;;;;31.92;20.55;;;;;;;-0.37;100.00;103269.03;5063330;28;20490;-78
2024/01/11 09:35:11;;;;;;;32.85;21.25;;;;;;;-0.31;100.00;103279.06;5067488;28;20028;-78
2024/01/11 09:37:36;;;;;;;31.67;20.60;;;;;;;-0.03;100.00;103279.81;5064111;28;20076;-76
2024/01/11 09:40:02;;;;;;;33.33;21.55;;;;;;;0.20;100.00;103292.97;5057095;28;20020;-75
2024/01/11 09:42:28;;;;;;;33.05;21.48;;;;;;;0.22;100.00;103297.53;5064953;28;20063;-79
2024/01/11 09:44:55;;;;;;;34.15;21.55;;;;;;;0.52;100.00;103304.44;5064660;28;20059;-78
2024/01/11 09:47:21;;;;;;;32.08;20.85;;;;;;;0.88;100.00;103296.94;5057278;28;20032;-78
2024/01/11 09:49:50;;;;;;;31.77;20.15;;;;;;;1.03;100.00;103303.44;5066598;28;20032;-77
2024/01/11 09:52:19;;;;;;;33.13;20.58;;;;;;;1.35;100.00;103310.34;5063423;28;20033;-76
2024/01/11 09:54:45;;;;;;;32.50;21.20;;;;;;;1.52;100.00;103310.81;5066588;28;20025;-77
2024/01/11 09:57:10;;;;;;;33.80;21.40;;;;;;;1.59;100.00;103309.59;5058460;28;20040;-76
2024/01/11 09:59:37;;;;;;;32.50;20.88;;;;;;;1.81;100.00;103314.88;5065721;28;20033;-75
2024/01/11 10:02:03;;;;;;;33.45;21.40;;;;;;;2.21;100.00;103317.97;5066459;28;20029;-75
2024/01/11 10:04:28;;;;;;;32.90;21.98;;;;;;;2.59;100.00;103312.19;5064177;28;20036;-75
2024/01/11 10:06:56;;;;;;;34.70;23.17;;;;;;;2.79;100.00;103316.31;5064765;28;20037;-76
2024/01/11 10:09:22;;;;;;;33.70;21.98;;;;;;;3.11;100.00;103316.09;5065131;28;20417;-78
2024/01/11 10:11:49;;;;;;;34.03;22.08;;;;;;;3.28;100.00;103319.09;5063969;28;20060;-76
2024/01/11 10:14:14;;;;;;;32.25;21.30;;;;;;;3.51;100.00;103323.38;5066136;28;20102;-75
2024/01/11 10:16:42;;;;;;;34.00;21.95;;;;;;;3.59;100.00;103326.56;5062960;28;20024;-80
2024/01/11 10:19:08;;;;;;;32.90;21.80;;;;;;;3.57;100.00;103323.81;5062148;28;20472;-81
2024/01/11 10:21:39;;;;;;;33.63;21.02;;;;;;;3.54;100.00;103325.28;5056028;28;20090;-79
2024/01/11 10:24:04;;;;;;;32.80;21.48;;;;;;;3.91;100.00;103323.63;5063055;28;20025;-80
2024/01/11 10:26:30;;;;;;;36.25;25.70;;;;;;;3.99;100.00;103324.16;5065495;28;20383;-80
2024/01/11 10:28:59;;;;;;;36.58;26.75;;;;;;;4.18;100.00;103321.16;5064130;28;20479;-79
2024/01/11 10:31:28;;;;;;;32.17;21.83;;;;;;;4.60;100.00;103326.63;5064533;28;20080;-83
2024/01/11 10:33:53;;;;;;;32.67;22.70;;;;;;;4.77;100.00;103323.44;5064497;28;20472;-82
2024/01/11 10:36:18;;;;;;;32.75;22.13;;;;;;;5.11;100.00;103325.72;5063511;28;20029;-81
2024/01/11 10:38:46;;;;;;;31.88;20.55;;;;;;;5.30;100.00;103321.66;5034787;28;20053;-81
2024/01/11 10:41:12;;;;;;;31.63;20.85;;;;;;;5.47;100.00;103330.63;5026242;28;20025;-82
2024/01/11 10:43:38;;;;;;;33.58;21.45;;;;;;;5.50;100.00;103334.34;5022616;28;20049;-83
2024/01/11 10:46:06;;;;;;;34.15;22.23;;;;;;;5.49;100.00;103331.63;5025717;28;20049;-84
2024/01/11 10:48:35;;;;;;;32.45;20.45;;;;;;;5.85;100.00;103319.06;5038316;28;20030;-85
2024/01/11 10:51:05;;;;;;;31.98;21.30;;;;;;;6.11;100.00;103325.97;5024917;28;20492;-84
2024/01/11 10:53:45;;;;;;;32.17;21.42;;;;;;;6.64;100.00;103319.56;5023046;28;20048;-84
2024/01/11 10:56:12;;;;;;;37.97;21.88;;;;;;;6.79;95.31;103316.94;5029924;28;20029;-85